Time,TemperatureF,DewpointF,PressureIn,WindDirection,WindDirectionDegrees,WindSpeedMPH,WindSpeedGustMPH,Humidity,HourlyPrecipIn,Conditions,Clouds,dailyrainin,SoftwareType,DateUTC
2013-03-17 00:02:00,51.3,42.0,30.05,WNW,298,0.0,-999.0,71,-99.99,,,0.00,weatherlink.com 1.10,2013-03-17 07:02:00,
2013-03-17 00:07:00,51.4,41.9,30.05,WNW,298,0.0,1.0,70,0.00,,,0.00,Wunderground v.1.15,2013-03-17 07:07:00,
2013-03-17 00:13:00,51.3,41.8,30.05,WNW,298,0.0,0.0,70,0.00,,,0.00,Wunderground v.1.15,2013-03-17 07:13:00,
2013-03-17 00:21:00,51.0,42.3,30.05,WNW,298,0.0,0.0,72,0.00,,,0.00,Wunderground v.1.15,2013-03-17 07:21:00,
2013-03-17 00:27:00,50.4,42.1,30.05,WNW,298,0.0,0.0,73,0.00,,,0.00,Wunderground v.1.15,2013-03-17 07:27:00,
2013-03-17 00:32:00,50.0,42.0,30.05,WNW,298,0.0,-999.0,73,-99.99,,,0.00,weatherlink.com 1.10,2013-03-17 07:32:00,
2013-03-17 00:37:00,49.5,41.6,30.05,WNW,298,0.0,0.0,74,0.00,,,0.00,Wunderground v.1.15,2013-03-17 07:37:00,
2013-03-17 00:43:00,49.0,41.4,30.05,WNW,298,0.0,0.0,75,0.00,,,0.00,Wunderground v.1.15,2013-03-17 07:43:00,
2013-03-17 00:49:00,48.5,41.0,30.05,WNW,298,0.0,-999.0,76,-99.99,,,0.00,weatherlink.com 1.10,2013-03-17 07:49:00,
2013-03-17 00:55:00,47.9,41.0,30.05,WNW,298,0.0,0.0,77,0.00,,,0.00,Wunderground v.1.15,2013-03-17 07:55:00,
2013-03-17 01:03:00,47.4,40.9,30.05,WNW,298,0.0,2.0,78,0.00,,,0.00,Wunderground v.1.15,2013-03-17 08:03:00,
2013-03-17 01:11:00,47.3,41.1,30.05,NW,306,1.0,1.0,79,0.00,,,0.00,Wunderground v.1.15,2013-03-17 08:11:00,
2013-03-17 01:17:00,47.3,41.1,30.05,NW,306,0.0,1.0,79,0.00,,,0.00,Wunderground v.1.15,2013-03-17 08:17:00,
2013-03-17 01:23:00,47.4,40.9,30.05,NW,309,1.0,1.0,78,0.00,,,0.00,Wunderground v.1.15,2013-03-17 08:23:00,
2013-03-17 01:33:00,47.7,41.2,30.05,NW,309,0.0,0.0,78,0.00,,,0.00,Wunderground v.1.15,2013-03-17 08:33:00,
2013-03-17 01:41:00,48.1,40.9,30.05,NW,309,0.0,3.0,76,0.00,,,0.00,Wunderground v.1.15,2013-03-17 08:41:00,
2013-03-17 01:47:00,48.5,40.9,30.05,NW,309,0.0,0.0,75,0.00,,,0.00,Wunderground v.1.15,2013-03-17 08:47:00,
2013-03-17 01:53:00,48.7,40.8,30.05,NW,309,0.0,0.0,74,0.00,,,0.00,Wunderground v.1.15,2013-03-17 08:53:00,
2013-03-17 02:01:00,48.7,40.8,30.05,NW,309,0.0,0.0,74,0.00,,,0.00,Wunderground v.1.15,2013-03-17 09:01:00,
2013-03-17 02:07:00,48.4,40.5,30.05,NW,309,0.0,0.0,74,0.00,,,0.00,Wunderground v.1.15,2013-03-17 09:07:00,
2013-03-17 02:13:00,48.0,40.5,30.05,NW,309,0.0,0.0,75,0.00,,,0.00,Wunderground v.1.15,2013-03-17 09:13:00,
2013-03-17 02:19:00,47.5,40.0,30.05,NW,309,0.0,-999.0,76,-99.99,,,0.00,weatherlink.com 1.10,2013-03-17 09:19:00,
2013-03-17 02:25:00,47.0,39.8,30.05,NW,309,0.0,0.0,76,0.00,,,0.00,Wunderground v.1.15,2013-03-17 09:25:00,
2013-03-17 02:33:00,46.4,39.9,30.06,NW,309,0.0,0.0,78,0.00,,,0.00,Wunderground v.1.15,2013-03-17 09:33:00,
2013-03-17 02:41:00,45.8,39.7,30.06,NW,309,0.0,0.0,79,0.00,,,0.00,Wunderground v.1.15,2013-03-17 09:41:00,
2013-03-17 02:47:00,45.4,39.3,30.05,NW,309,0.0,0.0,79,0.00,,,0.00,Wunderground v.1.15,2013-03-17 09:47:00,
2013-03-17 02:53:00,45.2,39.4,30.06,NW,309,0.0,0.0,80,0.00,,,0.00,Wunderground v.1.15,2013-03-17 09:53:00,
2013-03-17 03:03:00,44.7,38.9,30.05,NW,309,0.0,0.0,80,0.00,,,0.00,Wunderground v.1.15,2013-03-17 10:03:00,
2013-03-17 03:11:00,44.3,38.8,30.05,NW,309,0.0,0.0,81,0.00,,,0.00,Wunderground v.1.15,2013-03-17 10:11:00,
2013-03-17 03:17:00,44.1,39.0,30.05,NW,309,0.0,0.0,82,0.00,,,0.00,Wunderground v.1.15,2013-03-17 10:17:00,
2013-03-17 03:23:00,43.8,38.7,30.05,NW,309,0.0,0.0,82,0.00,,,0.00,Wunderground v.1.15,2013-03-17 10:23:00,
2013-03-17 03:33:00,43.4,38.6,30.05,NW,309,0.0,0.0,83,0.00,,,0.00,Wunderground v.1.15,2013-03-17 10:33:00,
2013-03-17 03:43:00,43.1,38.3,30.05,NW,309,0.0,1.0,83,0.00,,,0.00,Wunderground v.1.15,2013-03-17 10:43:00,
2013-03-17 03:51:00,42.8,38.3,30.05,NW,309,0.0,1.0,84,0.00,,,0.00,Wunderground v.1.15,2013-03-17 10:51:00,
2013-03-17 03:57:00,42.7,38.2,30.04,NW,309,0.0,1.0,84,0.00,,,0.00,Wunderground v.1.15,2013-03-17 10:57:00,
2013-03-17 04:03:00,42.5,37.7,30.04,NW,309,0.0,0.0,83,0.00,,,0.00,Wunderground v.1.15,2013-03-17 11:03:00,
2013-03-17 04:11:00,42.6,38.1,30.04,NW,309,0.0,0.0,84,0.00,,,0.00,Wunderground v.1.15,2013-03-17 11:11:00,
2013-03-17 04:17:00,42.6,38.1,30.04,NW,309,0.0,0.0,84,0.00,,,0.00,Wunderground v.1.15,2013-03-17 11:17:00,
2013-03-17 04:22:00,42.7,38.0,30.03,NW,309,0.0,-999.0,83,-99.99,,,0.00,weatherlink.com 1.10,2013-03-17 11:22:00,
2013-03-17 04:33:00,43.4,38.0,30.03,NW,309,0.0,0.0,81,0.00,,,0.00,Wunderground v.1.15,2013-03-17 11:33:00,
2013-03-17 04:41:00,44.1,38.0,30.03,NW,309,0.0,0.0,79,0.00,,,0.00,Wunderground v.1.15,2013-03-17 11:41:00,
2013-03-17 04:47:00,44.2,37.8,30.03,NW,309,0.0,0.0,78,0.00,,,0.00,Wunderground v.1.15,2013-03-17 11:47:00,
2013-03-17 04:53:00,44.1,38.0,30.03,NW,309,0.0,0.0,79,0.00,,,0.00,Wunderground v.1.15,2013-03-17 11:53:00,
2013-03-17 05:01:00,43.7,37.6,30.03,NW,309,0.0,0.0,79,0.00,,,0.00,Wunderground v.1.15,2013-03-17 12:01:00,
2013-03-17 05:07:00,43.3,37.2,30.03,NW,309,0.0,0.0,79,0.00,,,0.00,Wunderground v.1.15,2013-03-17 12:07:00,
2013-03-17 05:13:00,42.9,36.8,30.03,NW,309,0.0,0.0,79,0.00,,,0.00,Wunderground v.1.15,2013-03-17 12:13:00,
2013-03-17 05:21:00,42.4,37.0,30.03,NW,309,0.0,0.0,81,0.00,,,0.00,Wunderground v.1.15,2013-03-17 12:21:00,
2013-03-17 05:27:00,42.0,36.6,30.03,NW,309,0.0,0.0,81,0.00,,,0.00,Wunderground v.1.15,2013-03-17 12:27:00,
2013-03-17 05:33:00,41.7,36.6,30.04,NW,309,0.0,0.0,82,0.00,,,0.00,Wunderground v.1.15,2013-03-17 12:33:00,
2013-03-17 05:39:00,41.4,37.0,30.04,NW,309,0.0,-999.0,83,-99.99,,,0.00,weatherlink.com 1.10,2013-03-17 12:39:00,
2013-03-17 05:47:00,41.2,36.4,30.04,NW,309,0.0,0.0,83,0.00,,,0.00,Wunderground v.1.15,2013-03-17 12:47:00,
2013-03-17 05:53:00,41.0,36.5,30.04,NW,309,0.0,0.0,84,0.00,,,0.00,Wunderground v.1.15,2013-03-17 12:53:00,
2013-03-17 06:03:00,40.6,36.1,30.05,NW,309,0.0,0.0,84,0.00,,,0.00,Wunderground v.1.15,2013-03-17 13:03:00,
2013-03-17 06:09:00,40.4,36.0,30.05,NW,309,0.0,-999.0,84,-99.99,,,0.00,weatherlink.com 1.10,2013-03-17 13:09:00,
2013-03-17 06:17:00,40.0,35.6,30.05,NW,309,0.0,0.0,84,0.00,,,0.00,Wunderground v.1.15,2013-03-17 13:17:00,
2013-03-17 06:23:00,39.8,35.7,30.06,NW,309,0.0,0.0,85,0.00,,,0.00,Wunderground v.1.15,2013-03-17 13:23:00,
2013-03-17 06:33:00,39.5,35.4,30.06,NW,309,0.0,0.0,85,0.00,,,0.00,Wunderground v.1.15,2013-03-17 13:33:00,
2013-03-17 06:39:00,39.3,36.0,30.06,NW,309,0.0,-999.0,86,-99.99,,,0.00,weatherlink.com 1.10,2013-03-17 13:39:00,
2013-03-17 06:47:00,39.0,35.2,30.06,NW,309,0.0,0.0,86,0.00,,,0.00,Wunderground v.1.15,2013-03-17 13:47:00,
2013-03-17 06:53:00,38.8,35.0,30.06,NW,309,0.0,0.0,86,0.00,,,0.00,Wunderground v.1.15,2013-03-17 13:53:00,
2013-03-17 07:03:00,38.5,34.7,30.07,NW,309,0.0,0.0,86,0.00,,,0.00,Wunderground v.1.15,2013-03-17 14:03:00,
2013-03-17 07:10:00,38.3,35.0,30.07,NW,309,0.0,-999.0,87,-99.99,,,0.00,weatherlink.com 1.10,2013-03-17 14:10:00,
2013-03-17 07:17:00,38.1,34.9,30.07,NW,309,0.0,0.0,88,0.00,,,0.00,Wunderground v.1.15,2013-03-17 14:17:00,
2013-03-17 07:23:00,38.0,34.8,30.07,NW,309,0.0,0.0,88,0.00,,,0.00,Wunderground v.1.15,2013-03-17 14:23:00,
2013-03-17 07:33:00,37.9,34.7,30.07,NW,309,0.0,0.0,88,0.00,,,0.00,Wunderground v.1.15,2013-03-17 14:33:00,
2013-03-17 07:41:00,37.9,35.0,30.07,NW,309,0.0,-999.0,88,-99.99,,,0.00,weatherlink.com 1.10,2013-03-17 14:41:00,
2013-03-17 07:47:00,38.0,35.0,30.07,NW,309,0.0,0.0,89,0.00,,,0.00,Wunderground v.1.15,2013-03-17 14:47:00,
2013-03-17 07:53:00,38.1,35.1,30.06,NW,309,0.0,0.0,89,0.00,,,0.00,Wunderground v.1.15,2013-03-17 14:53:00,
2013-03-17 08:01:00,38.7,35.7,30.06,NW,319,0.0,0.0,89,0.00,,,0.00,Wunderground v.1.15,2013-03-17 15:01:00,
2013-03-17 08:07:00,39.9,36.3,30.07,NW,319,0.0,1.0,87,0.00,,,0.00,Wunderground v.1.15,2013-03-17 15:07:00,
2013-03-17 08:12:00,41.2,37.0,30.07,NW,319,0.0,-999.0,84,-99.99,,,0.00,weatherlink.com 1.10,2013-03-17 15:12:00,
2013-03-17 08:17:00,42.5,37.1,30.07,NW,320,0.0,1.0,81,0.00,,,0.00,Wunderground v.1.15,2013-03-17 15:17:00,
2013-03-17 08:23:00,43.4,37.3,30.08,NW,321,0.0,0.0,79,0.00,,,0.00,Wunderground v.1.15,2013-03-17 15:23:00,
2013-03-17 08:31:00,44.6,37.5,30.08,NW,321,0.0,0.0,76,0.00,,,0.00,Wunderground v.1.15,2013-03-17 15:31:00,
2013-03-17 08:37:00,45.5,37.7,30.08,NW,321,0.0,0.0,74,0.00,,,0.00,Wunderground v.1.15,2013-03-17 15:37:00,
2013-03-17 08:42:00,46.3,38.0,30.09,NW,319,0.0,-999.0,74,-99.99,,,0.00,weatherlink.com 1.10,2013-03-17 15:42:00,
2013-03-17 08:51:00,47.4,39.5,30.09,NW,319,0.0,0.0,74,0.00,,,0.00,Wunderground v.1.15,2013-03-17 15:51:00,
2013-03-17 08:57:00,48.1,39.0,30.09,NW,319,0.0,-999.0,72,-99.99,,,0.00,weatherlink.com 1.10,2013-03-17 15:57:00,
2013-03-17 09:03:00,48.8,39.8,30.09,NW,319,0.0,0.0,71,0.00,,,0.00,Wunderground v.1.15,2013-03-17 16:03:00,
2013-03-17 09:12:00,49.8,40.0,30.09,NW,321,1.0,-999.0,70,-99.99,,,0.00,weatherlink.com 1.10,2013-03-17 16:12:00,
2013-03-17 09:21:00,50.8,40.6,30.08,North,5,1.0,1.0,68,0.00,,,0.00,Wunderground v.1.15,2013-03-17 16:21:00,
2013-03-17 09:27:00,51.3,40.7,30.09,North,5,1.0,1.0,67,0.00,,,0.00,Wunderground v.1.15,2013-03-17 16:27:00,
2013-03-17 09:33:00,52.0,40.2,30.09,North,5,0.0,0.0,64,0.00,,,0.00,Wunderground v.1.15,2013-03-17 16:33:00,
2013-03-17 09:41:00,53.2,40.5,30.09,North,360,0.0,1.0,62,0.00,,,0.00,Wunderground v.1.15,2013-03-17 16:41:00,
2013-03-17 09:47:00,54.2,39.7,30.09,WSW,245,0.0,2.0,58,0.00,,,0.00,Wunderground v.1.15,2013-03-17 16:47:00,
2013-03-17 09:53:00,54.9,39.9,30.09,WSW,245,0.0,0.0,57,0.00,,,0.00,Wunderground v.1.15,2013-03-17 16:53:00,
2013-03-17 09:59:00,55.8,40.0,30.09,WSW,243,3.0,-999.0,55,-99.99,,,0.00,weatherlink.com 1.10,2013-03-17 16:59:00,
2013-03-17 10:05:00,56.2,40.2,30.10,WSW,243,1.0,1.0,55,0.00,,,0.00,Wunderground v.1.15,2013-03-17 17:05:00,
2013-03-17 10:11:00,57.3,42.2,30.10,SW,219,1.0,1.0,57,0.00,,,0.00,Wunderground v.1.15,2013-03-17 17:11:00,
2013-03-17 10:17:00,58.1,41.5,30.10,SW,218,1.0,1.0,54,0.00,,,0.00,Wunderground v.1.15,2013-03-17 17:17:00,
2013-03-17 10:23:00,58.4,41.8,30.09,SW,220,1.0,3.0,54,0.00,,,0.00,Wunderground v.1.15,2013-03-17 17:23:00,
2013-03-17 10:29:00,58.1,42.0,30.10,SW,219,1.0,-999.0,55,-99.99,,,0.00,weatherlink.com 1.10,2013-03-17 17:29:00,
2013-03-17 10:35:00,58.1,42.9,30.10,SW,218,2.0,2.0,57,0.00,,,0.00,Wunderground v.1.15,2013-03-17 17:35:00,
2013-03-17 10:41:00,58.3,42.7,30.09,SW,219,2.0,2.0,56,0.00,,,0.00,Wunderground v.1.15,2013-03-17 17:41:00,
2013-03-17 10:47:00,58.7,42.6,30.09,SW,218,1.0,2.0,55,0.00,,,0.00,Wunderground v.1.15,2013-03-17 17:47:00,
2013-03-17 10:53:00,59.1,42.9,30.10,SW,219,1.0,4.0,55,0.00,,,0.00,Wunderground v.1.15,2013-03-17 17:53:00,
2013-03-17 11:03:00,59.0,43.3,30.10,SW,220,1.0,4.0,56,0.00,,,0.00,Wunderground v.1.15,2013-03-17 18:03:00,
2013-03-17 11:13:00,60.1,43.4,30.10,SW,226,1.0,1.0,54,0.00,,,0.00,Wunderground v.1.15,2013-03-17 18:13:00,
2013-03-17 11:21:00,60.4,43.7,30.10,SW,227,1.0,2.0,54,0.00,,,0.00,Wunderground v.1.15,2013-03-17 18:21:00,
2013-03-17 11:27:00,60.1,43.9,30.10,SW,230,2.0,5.0,55,0.00,,,0.00,Wunderground v.1.15,2013-03-17 18:27:00,
2013-03-17 11:33:00,59.9,44.2,30.10,SW,231,3.0,3.0,56,0.00,,,0.00,Wunderground v.1.15,2013-03-17 18:33:00,
2013-03-17 11:41:00,59.8,44.1,30.09,WSW,244,3.0,3.0,56,0.00,,,0.00,Wunderground v.1.15,2013-03-17 18:41:00,
2013-03-17 11:47:00,60.2,44.4,30.09,SSW,208,2.0,5.0,56,0.00,,,0.00,Wunderground v.1.15,2013-03-17 18:47:00,
2013-03-17 11:53:00,60.6,44.8,30.10,SW,215,3.0,3.0,56,0.00,,,0.00,Wunderground v.1.15,2013-03-17 18:53:00,
2013-03-17 12:01:00,61.4,44.6,30.10,WNW,292,2.0,4.0,54,0.00,,,0.00,Wunderground v.1.15,2013-03-17 19:01:00,
2013-03-17 12:07:00,61.5,44.2,30.10,SSW,213,3.0,7.0,53,0.00,,,0.00,Wunderground v.1.15,2013-03-17 19:07:00,
2013-03-17 12:13:00,61.2,43.9,30.10,WSW,238,5.0,6.0,53,0.00,,,0.00,Wunderground v.1.15,2013-03-17 19:13:00,
2013-03-17 12:21:00,61.1,43.3,30.10,WNW,287,4.0,4.0,52,0.00,,,0.00,Wunderground v.1.15,2013-03-17 19:21:00,
2013-03-17 12:27:00,61.2,43.4,30.10,WNW,286,3.0,4.0,52,0.00,,,0.00,Wunderground v.1.15,2013-03-17 19:27:00,
2013-03-17 12:33:00,61.6,43.3,30.10,NW,317,3.0,3.0,51,0.00,,,0.00,Wunderground v.1.15,2013-03-17 19:33:00,
2013-03-17 12:41:00,61.7,43.4,30.09,WNW,288,3.0,3.0,51,0.00,,,0.00,Wunderground v.1.15,2013-03-17 19:41:00,
2013-03-17 12:47:00,62.2,42.8,30.09,WSW,249,2.0,3.0,49,0.00,,,0.00,Wunderground v.1.15,2013-03-17 19:47:00,
2013-03-17 12:53:00,62.3,43.4,30.09,WSW,251,2.0,4.0,50,0.00,,,0.00,Wunderground v.1.15,2013-03-17 19:53:00,
2013-03-17 13:01:00,62.7,43.3,30.09,WSW,240,2.0,3.0,49,0.00,,,0.00,Wunderground v.1.15,2013-03-17 20:01:00,
2013-03-17 13:07:00,63.0,43.0,30.09,West,275,2.0,3.0,48,0.00,,,0.00,Wunderground v.1.15,2013-03-17 20:07:00,
2013-03-17 13:13:00,63.4,42.2,30.08,SW,234,3.0,5.0,46,0.00,,,0.00,Wunderground v.1.15,2013-03-17 20:13:00,
2013-03-17 13:21:00,63.6,42.4,30.08,WNW,302,2.0,6.0,46,0.00,,,0.00,Wunderground v.1.15,2013-03-17 20:21:00,
2013-03-17 13:27:00,63.9,43.3,30.08,West,268,3.0,6.0,47,0.00,,,0.00,Wunderground v.1.15,2013-03-17 20:27:00,
2013-03-17 13:33:00,64.5,42.7,30.07,West,262,2.0,4.0,45,0.00,,,0.00,Wunderground v.1.15,2013-03-17 20:33:00,
2013-03-17 13:41:00,64.9,42.5,30.07,West,280,1.0,4.0,44,0.00,,,0.00,Wunderground v.1.15,2013-03-17 20:41:00,
2013-03-17 13:47:00,65.7,42.6,30.07,West,260,2.0,3.0,43,0.00,,,0.00,Wunderground v.1.15,2013-03-17 20:47:00,
2013-03-17 13:53:00,65.7,41.3,30.07,West,261,3.0,6.0,41,0.00,,,0.00,Wunderground v.1.15,2013-03-17 20:53:00,
2013-03-17 14:01:00,65.6,41.9,30.07,SW,232,3.0,3.0,42,0.00,,,0.00,Wunderground v.1.15,2013-03-17 21:01:00,
2013-03-17 14:07:00,65.6,41.9,30.07,NW,315,3.0,4.0,42,0.00,,,0.00,Wunderground v.1.15,2013-03-17 21:07:00,
2013-03-17 14:13:00,65.8,41.4,30.07,NW,309,3.0,3.0,41,0.00,,,0.00,Wunderground v.1.15,2013-03-17 21:13:00,
2013-03-17 14:19:00,66.0,41.0,30.06,SW,226,1.0,-999.0,40,-99.99,,,0.00,weatherlink.com 1.10,2013-03-17 21:19:00,
2013-03-17 14:25:00,66.0,40.3,30.06,West,260,3.0,10.0,39,0.00,,,0.00,Wunderground v.1.15,2013-03-17 21:25:00,
2013-03-17 14:33:00,65.9,40.9,30.06,West,272,3.0,3.0,40,0.00,,,0.00,Wunderground v.1.15,2013-03-17 21:33:00,
2013-03-17 14:41:00,66.0,40.3,30.05,WSW,252,4.0,8.0,39,0.00,,,0.00,Wunderground v.1.15,2013-03-17 21:41:00,
2013-03-17 14:47:00,66.8,41.0,30.05,WSW,256,4.0,5.0,39,0.00,,,0.00,Wunderground v.1.15,2013-03-17 21:47:00,
2013-03-17 14:53:00,67.1,40.6,30.05,WNW,284,2.0,2.0,38,0.00,,,0.00,Wunderground v.1.15,2013-03-17 21:53:00,
2013-03-17 15:03:00,67.1,39.9,30.05,SW,235,3.0,3.0,37,0.00,,,0.00,Wunderground v.1.15,2013-03-17 22:03:00,
2013-03-17 15:11:00,67.0,40.5,30.05,West,266,3.0,5.0,38,0.00,,,0.00,Wunderground v.1.15,2013-03-17 22:11:00,
2013-03-17 15:17:00,67.3,41.5,30.05,WSW,250,3.0,4.0,39,0.00,,,0.00,Wunderground v.1.15,2013-03-17 22:17:00,
2013-03-17 15:23:00,67.1,41.3,30.05,NW,325,4.0,7.0,39,0.00,,,0.00,Wunderground v.1.15,2013-03-17 22:23:00,
2013-03-17 15:33:00,67.1,42.6,30.05,West,263,3.0,3.0,41,0.00,,,0.00,Wunderground v.1.15,2013-03-17 22:33:00,
2013-03-17 15:41:00,67.3,42.8,30.05,SW,232,4.0,5.0,41,0.00,,,0.00,Wunderground v.1.15,2013-03-17 22:41:00,
2013-03-17 15:47:00,67.4,42.2,30.05,WSW,254,3.0,7.0,40,0.00,,,0.00,Wunderground v.1.15,2013-03-17 22:47:00,
2013-03-17 15:53:00,67.7,42.5,30.05,WNW,296,4.0,4.0,40,0.00,,,0.00,Wunderground v.1.15,2013-03-17 22:53:00,
2013-03-17 16:03:00,67.3,41.5,30.04,NW,305,3.0,4.0,39,0.00,,,0.00,Wunderground v.1.15,2013-03-17 23:03:00,
2013-03-17 16:11:00,67.1,42.0,30.04,WSW,240,3.0,4.0,40,0.00,,,0.00,Wunderground v.1.15,2013-03-17 23:11:00,
2013-03-17 16:17:00,66.7,41.6,30.03,West,281,2.0,3.0,40,0.00,,,0.00,Wunderground v.1.15,2013-03-17 23:17:00,
2013-03-17 16:23:00,66.5,42.1,30.03,NW,325,2.0,2.0,41,0.00,,,0.00,Wunderground v.1.15,2013-03-17 23:23:00,
2013-03-17 16:33:00,66.4,42.6,30.03,West,261,2.0,3.0,42,0.00,,,0.00,Wunderground v.1.15,2013-03-17 23:33:00,
2013-03-17 16:41:00,66.3,42.5,30.03,WNW,300,2.0,6.0,42,0.00,,,0.00,Wunderground v.1.15,2013-03-17 23:41:00,
2013-03-17 16:47:00,66.3,43.1,30.03,NW,310,2.0,2.0,43,0.00,,,0.00,Wunderground v.1.15,2013-03-17 23:47:00,
2013-03-17 16:52:00,66.2,43.0,30.03,WNW,292,4.0,-999.0,44,-99.99,,,0.00,weatherlink.com 1.10,2013-03-17 23:52:00,
2013-03-17 17:03:00,66.0,43.5,30.03,WSW,254,2.0,2.0,44,0.00,,,0.00,Wunderground v.1.15,2013-03-18 00:03:00,
2013-03-17 17:09:00,66.7,43.0,30.03,WNW,301,3.0,-999.0,42,-99.99,,,0.00,weatherlink.com 1.10,2013-03-18 00:09:00,
2013-03-17 17:17:00,67.0,41.9,30.03,NNW,329,2.0,6.0,40,0.00,,,0.00,Wunderground v.1.15,2013-03-18 00:17:00,
2013-03-17 17:22:00,66.9,42.0,30.03,NW,312,0.0,-999.0,40,-99.99,,,0.00,weatherlink.com 1.10,2013-03-18 00:22:00,
2013-03-17 17:31:00,67.2,42.7,30.03,NNW,333,1.0,1.0,41,0.00,,,0.00,Wunderground v.1.15,2013-03-18 00:31:00,
2013-03-17 17:37:00,67.3,42.8,30.03,North,355,2.0,4.0,41,0.00,,,0.00,Wunderground v.1.15,2013-03-18 00:37:00,
2013-03-17 17:43:00,67.2,42.0,30.03,WNW,288,2.0,2.0,40,0.00,,,0.00,Wunderground v.1.15,2013-03-18 00:43:00,
2013-03-17 17:51:00,66.8,41.7,30.03,NW,311,1.0,2.0,40,0.00,,,0.00,Wunderground v.1.15,2013-03-18 00:51:00,
2013-03-17 17:57:00,66.1,39.7,30.03,WNW,301,2.0,6.0,38,0.00,,,0.00,Wunderground v.1.15,2013-03-18 00:57:00,
2013-03-17 18:03:00,65.7,39.4,30.03,NW,310,2.0,6.0,38,0.00,,,0.00,Wunderground v.1.15,2013-03-18 01:03:00,
2013-03-17 18:09:00,65.3,40.0,30.02,WNW,296,0.0,-999.0,39,-99.99,,,0.00,weatherlink.com 1.10,2013-03-18 01:09:00,
2013-03-17 18:17:00,64.8,39.2,30.03,WNW,301,1.0,4.0,39,0.00,,,0.00,Wunderground v.1.15,2013-03-18 01:17:00,
2013-03-17 18:23:00,64.5,39.6,30.03,NW,305,2.0,4.0,40,0.00,,,0.00,Wunderground v.1.15,2013-03-18 01:23:00,
2013-03-17 18:33:00,63.9,39.1,30.02,WNW,296,1.0,3.0,40,0.00,,,0.00,Wunderground v.1.15,2013-03-18 01:33:00,
2013-03-17 18:39:00,63.6,39.0,30.02,WNW,296,0.0,-999.0,41,-99.99,,,0.00,weatherlink.com 1.10,2013-03-18 01:39:00,
2013-03-17 18:47:00,63.2,39.1,30.02,WNW,297,1.0,4.0,41,0.00,,,0.00,Wunderground v.1.15,2013-03-18 01:47:00,
2013-03-17 18:53:00,62.8,40.0,30.02,WNW,300,1.0,1.0,43,0.00,,,0.00,Wunderground v.1.15,2013-03-18 01:53:00,
2013-03-17 19:03:00,62.1,39.3,30.02,WNW,300,1.0,1.0,43,0.00,,,0.00,Wunderground v.1.15,2013-03-18 02:03:00,
2013-03-17 19:09:00,61.7,39.0,30.02,WNW,301,0.0,-999.0,44,-99.99,,,0.00,weatherlink.com 1.10,2013-03-18 02:09:00,
2013-03-17 19:17:00,61.2,39.7,30.02,WNW,301,0.0,0.0,45,0.00,,,0.00,Wunderground v.1.15,2013-03-18 02:17:00,
2013-03-17 19:23:00,60.8,39.9,30.02,WNW,301,0.0,0.0,46,0.00,,,0.00,Wunderground v.1.15,2013-03-18 02:23:00,
2013-03-17 19:33:00,59.7,40.0,30.02,WNW,300,0.0,0.0,48,0.00,,,0.00,Wunderground v.1.15,2013-03-18 02:33:00,
2013-03-17 19:40:00,58.9,40.0,30.02,WNW,301,0.0,-999.0,50,-99.99,,,0.00,weatherlink.com 1.10,2013-03-18 02:40:00,
2013-03-17 19:47:00,58.2,40.1,30.02,WNW,300,0.0,0.0,51,0.00,,,0.00,Wunderground v.1.15,2013-03-18 02:47:00,
2013-03-17 19:53:00,57.6,40.1,30.02,WNW,301,0.0,0.0,52,0.00,,,0.00,Wunderground v.1.15,2013-03-18 02:53:00,
2013-03-17 20:03:00,56.6,40.1,30.02,WNW,300,0.0,0.0,54,0.00,,,0.00,Wunderground v.1.15,2013-03-18 03:03:00,
2013-03-17 20:10:00,55.8,40.0,30.02,WNW,301,0.0,-999.0,55,-99.99,,,0.00,weatherlink.com 1.10,2013-03-18 03:10:00,
2013-03-17 20:17:00,55.1,39.7,30.02,WNW,300,0.0,0.0,56,0.00,,,0.00,Wunderground v.1.15,2013-03-18 03:17:00,
2013-03-17 20:23:00,54.6,39.7,30.03,WNW,301,0.0,0.0,57,0.00,,,0.00,Wunderground v.1.15,2013-03-18 03:23:00,
2013-03-17 20:31:00,53.9,39.9,30.03,WNW,301,0.0,0.0,59,0.00,,,0.00,Wunderground v.1.15,2013-03-18 03:31:00,
2013-03-17 20:37:00,53.3,39.3,30.03,WNW,301,0.0,0.0,59,0.00,,,0.00,Wunderground v.1.15,2013-03-18 03:37:00,
2013-03-17 20:43:00,52.9,39.4,30.03,WNW,300,0.0,0.0,60,0.00,,,0.00,Wunderground v.1.15,2013-03-18 03:43:00,
2013-03-17 20:51:00,52.4,38.9,30.03,WNW,301,0.0,0.0,60,0.00,,,0.00,Wunderground v.1.15,2013-03-18 03:51:00,
2013-03-17 20:57:00,52.0,39.0,30.03,WNW,301,0.0,-999.0,62,-99.99,,,0.00,weatherlink.com 1.10,2013-03-18 03:57:00,
2013-03-17 21:01:00,51.7,39.5,30.03,WNW,301,0.0,0.0,63,0.00,,,0.00,Wunderground v.1.15,2013-03-18 04:01:00,
2013-03-17 21:03:00,51.5,39.7,30.03,WNW,301,0.0,0.0,64,0.00,,,0.00,Wunderground v.1.15,2013-03-18 04:03:00,
2013-03-17 21:12:00,51.0,39.0,30.03,WNW,301,0.0,-999.0,64,-99.99,,,0.00,weatherlink.com 1.10,2013-03-18 04:12:00,
2013-03-17 21:17:00,50.8,39.1,30.04,WNW,301,0.0,0.0,64,0.00,,,0.00,Wunderground v.1.15,2013-03-18 04:17:00,
2013-03-17 21:23:00,50.5,39.6,30.04,WNW,301,0.0,0.0,66,0.00,,,0.00,Wunderground v.1.15,2013-03-18 04:23:00,
2013-03-17 21:31:00,50.0,39.5,30.04,WNW,301,0.0,0.0,67,0.00,,,0.00,Wunderground v.1.15,2013-03-18 04:31:00,
2013-03-17 21:37:00,49.7,39.2,30.04,WNW,301,0.0,0.0,67,0.00,,,0.00,Wunderground v.1.15,2013-03-18 04:37:00,
2013-03-17 21:42:00,49.4,39.0,30.04,WNW,301,0.0,-999.0,68,-99.99,,,0.00,weatherlink.com 1.10,2013-03-18 04:42:00,
2013-03-17 21:47:00,49.2,39.1,30.04,WNW,300,0.0,0.0,68,0.00,,,0.00,Wunderground v.1.15,2013-03-18 04:47:00,
2013-03-17 21:53:00,48.9,39.2,30.05,WNW,300,0.0,0.0,69,0.00,,,0.00,Wunderground v.1.15,2013-03-18 04:53:00,
2013-03-17 22:03:00,48.5,39.2,30.05,WNW,301,0.0,0.0,70,0.00,,,0.00,Wunderground v.1.15,2013-03-18 05:03:00,
2013-03-17 22:11:00,48.2,38.9,30.05,WNW,301,0.0,0.0,70,0.00,,,0.00,Wunderground v.1.15,2013-03-18 05:11:00,
2013-03-17 22:17:00,47.9,38.6,30.05,WNW,300,0.0,0.0,70,0.00,,,0.00,Wunderground v.1.15,2013-03-18 05:17:00,
2013-03-17 22:23:00,47.7,38.4,30.05,WNW,301,0.0,0.0,70,0.00,,,0.00,Wunderground v.1.15,2013-03-18 05:23:00,
2013-03-17 22:29:00,47.4,38.0,30.05,WNW,301,0.0,-999.0,70,-99.99,,,0.00,weatherlink.com 1.10,2013-03-18 05:29:00,
2013-03-17 22:35:00,47.2,38.3,30.05,WNW,301,0.0,0.0,71,0.00,,,0.00,Wunderground v.1.15,2013-03-18 05:35:00,
2013-03-17 22:41:00,46.9,37.6,30.05,WNW,300,0.0,0.0,70,0.00,,,0.00,Wunderground v.1.15,2013-03-18 05:41:00,
2013-03-17 22:47:00,46.7,37.8,30.05,WNW,300,0.0,0.0,71,0.00,,,0.00,Wunderground v.1.15,2013-03-18 05:47:00,
2013-03-17 22:53:00,46.5,37.6,30.05,WNW,301,0.0,0.0,71,0.00,,,0.00,Wunderground v.1.15,2013-03-18 05:53:00,
2013-03-17 22:59:00,46.3,38.0,30.05,WNW,300,0.0,-999.0,72,-99.99,,,0.00,weatherlink.com 1.10,2013-03-18 05:59:00,
2013-03-17 23:05:00,46.1,37.9,30.06,WNW,301,0.0,0.0,73,0.00,,,0.00,Wunderground v.1.15,2013-03-18 06:05:00,
2013-03-17 23:11:00,46.0,37.8,30.05,WNW,300,0.0,0.0,73,0.00,,,0.00,Wunderground v.1.15,2013-03-18 06:11:00,
2013-03-17 23:17:00,45.8,38.0,30.05,WNW,301,0.0,0.0,74,0.00,,,0.00,Wunderground v.1.15,2013-03-18 06:17:00,
2013-03-17 23:23:00,45.6,38.1,30.05,WNW,300,0.0,0.0,75,0.00,,,0.00,Wunderground v.1.15,2013-03-18 06:23:00,
2013-03-17 23:30:00,45.5,38.0,30.05,WNW,300,0.0,-999.0,76,-99.99,,,0.00,weatherlink.com 1.10,2013-03-18 06:30:00,
2013-03-17 23:37:00,45.3,38.2,30.05,WNW,301,0.0,0.0,76,0.00,,,0.00,Wunderground v.1.15,2013-03-18 06:37:00,
2013-03-17 23:43:00,45.2,38.4,30.05,WNW,301,0.0,0.0,77,0.00,,,0.00,Wunderground v.1.15,2013-03-18 06:43:00,
2013-03-17 23:53:00,45.1,38.6,30.05,WNW,301,0.0,0.0,78,0.00,,,0.00,Wunderground v.1.15,2013-03-18 06:53:00,